地図

経路データ

SID SEASON NUMBER BASIN SUBBASIN NAME ISO_TIME NATURE LAT LON WMO_WIND WMO_PRES WMO_AGENCY TRACK_TYPE DIST2LAND LANDFALL IFLAG USA_AGENCY USA_ATCF_ID USA_LAT USA_LON USA_RECORD USA_STATUS USA_WIND USA_PRES USA_SSHS USA_R34_NE USA_R34_SE USA_R34_SW USA_R34_NW USA_R50_NE USA_R50_SE USA_R50_SW USA_R50_NW USA_R64_NE USA_R64_SE USA_R64_SW USA_R64_NW USA_POCI USA_ROCI USA_RMW USA_EYE TOKYO_LAT TOKYO_LON TOKYO_GRADE TOKYO_WIND TOKYO_PRES TOKYO_R50_DIR TOKYO_R50_LONG TOKYO_R50_SHORT TOKYO_R30_DIR TOKYO_R30_LONG TOKYO_R30_SHORT TOKYO_LAND CMA_LAT CMA_LON CMA_CAT CMA_WIND CMA_PRES HKO_LAT HKO_LON HKO_CAT HKO_WIND HKO_PRES NEWDELHI_LAT NEWDELHI_LON NEWDELHI_GRADE NEWDELHI_WIND NEWDELHI_PRES NEWDELHI_CI NEWDELHI_DP NEWDELHI_POCI REUNION_LAT REUNION_LON REUNION_TYPE REUNION_WIND REUNION_PRES REUNION_TNUM REUNION_CI REUNION_RMW REUNION_R34_NE REUNION_R34_SE REUNION_R34_SW REUNION_R34_NW REUNION_R50_NE REUNION_R50_SE REUNION_R50_SW REUNION_R50_NW REUNION_R64_NE REUNION_R64_SE REUNION_R64_SW REUNION_R64_NW BOM_LAT BOM_LON BOM_TYPE BOM_WIND BOM_PRES BOM_TNUM BOM_CI BOM_RMW BOM_R34_NE BOM_R34_SE BOM_R34_SW BOM_R34_NW BOM_R50_NE BOM_R50_SE BOM_R50_SW BOM_R50_NW BOM_R64_NE BOM_R64_SE BOM_R64_SW BOM_R64_NW BOM_ROCI BOM_POCI BOM_EYE BOM_POS_METHOD BOM_PRES_METHOD NADI_LAT NADI_LON NADI_CAT NADI_WIND NADI_PRES WELLINGTON_LAT WELLINGTON_LON WELLINGTON_WIND WELLINGTON_PRES DS824_LAT DS824_LON DS824_STAGE DS824_WIND DS824_PRES TD9636_LAT TD9636_LON TD9636_STAGE TD9636_WIND TD9636_PRES TD9635_LAT TD9635_LON TD9635_WIND TD9635_PRES TD9635_ROCI NEUMANN_LAT NEUMANN_LON NEUMANN_CLASS NEUMANN_WIND NEUMANN_PRES MLC_LAT MLC_LON MLC_CLASS MLC_WIND MLC_PRES USA_GUST BOM_GUST BOM_GUST_PER REUNION_GUST REUNION_GUST_PER USA_SEAHGT USA_SEARAD_NE USA_SEARAD_SE USA_SEARAD_SW USA_SEARAD_NW STORM_SPEED STORM_DIR
1952023S11158 1952 9 SP EA NOT_NAMED 1952-01-22 12:00:00 TS -11.0000 158.000 main 238 238 O________OO___ jtwc_sh SH111952 -11.0000 158.000 -1 -11.0000 158.000 TC -11.0000 158.000 4 4 171
1952023S11158 1952 9 SP EA NOT_NAMED 1952-01-22 15:00:00 TS -11.1995 158.044 main 251 243 P________PP___ SH111952 -11.2000 158.045 -1 -11.2000 158.045 TC -11.1984 158.041 4 4 166
1952023S11158 1952 9 SP EA NOT_NAMED 1952-01-22 18:00:00 TS -11.3991 158.098 main 258 258 O________OP___ jtwc_sh SH111952 -11.4000 158.100 -1 -11.4000 158.100 TC -11.3974 158.095 4 4 162
1952023S11158 1952 9 SP EA NOT_NAMED 1952-01-22 21:00:00 TS -11.5992 158.177 main 266 266 P________PP___ SH111952 -11.6000 158.178 -1 -11.6000 158.178 TC -11.5977 158.177 4 4 154
1952023S11158 1952 9 SP EA NOT_NAMED 1952-01-23 00:00:00 TS -11.8000 158.300 main 277 277 O________OO___ jtwc_sh SH111952 -11.8000 158.300 -1 -11.8000 158.300 TC -11.8000 158.300 4 5 144
1952023S11158 1952 9 SP EA NOT_NAMED 1952-01-23 03:00:00 TS -12.0014 158.481 main 284 284 P________PP___ SH111952 -12.0000 158.485 -1 -12.0000 158.485 TC -12.0041 158.472 4 6 136
1952023S11158 1952 9 SP EA NOT_NAMED 1952-01-23 06:00:00 TS -12.2025 158.692 main 294 294 O________OP___ jtwc_sh SH111952 -12.2000 158.700 -1 -12.2000 158.700 TC -12.2076 158.677 4 6 134
1952023S11158 1952 9 SP EA NOT_NAMED 1952-01-23 09:00:00 TS -12.4024 158.903 main 307 307 P________PP___ SH111952 -12.4000 158.908 -1 -12.4000 158.908 TC -12.4073 158.894 4 6 135
1952023S11158 1952 9 SP EA NOT_NAMED 1952-01-23 12:00:00 TS -12.6000 159.100 main 322 322 O________OO___ jtwc_sh SH111952 -12.6000 159.100 -1 -12.6000 159.100 TC -12.6000 159.100 4 5 139
1952023S11158 1952 9 SP EA NOT_NAMED 1952-01-23 15:00:00 TS -12.8004 159.254 main 340 340 P________PP___ SH111952 -12.8075 159.258 -1 -12.8075 159.258 TC -12.7861 159.248 4 5 144
1952023S11158 1952 9 SP EA NOT_NAMED 1952-01-23 18:00:00 TS -12.9883 159.395 main 352 352 O________OP___ jtwc_sh SH111952 -13.0000 159.400 -1 -13.0000 159.400 TC -12.9648 159.385 4 4 142
1952023S11158 1952 9 SP EA NOT_NAMED 1952-01-23 21:00:00 TS -13.1503 159.533 main 363 357 P________PP___ SH111952 -13.1575 159.535 -1 -13.1575 159.535 TC -13.1361 159.530 4 4 136
1952023S11158 1952 9 SP EA NOT_NAMED 1952-01-24 00:00:00 TS -13.3000 159.700 main 360 354 O________OO___ jtwc_sh SH111952 -13.3000 159.700 -1 -13.3000 159.700 TC -13.3000 159.700 4 5 129
1952023S11158 1952 9 SP EA NOT_NAMED 1952-01-24 03:00:00 TS -13.4605 159.929 main 366 354 P________PP___ SH111952 -13.4500 159.935 -1 -13.4500 159.935 TC -13.4816 159.917 4 6 124
1952023S11158 1952 9 SP MM NOT_NAMED 1952-01-24 06:00:00 TS -13.6175 160.187 main 358 358 O________OP___ jtwc_sh SH111952 -13.6000 160.200 -1 -13.6000 160.200 TC -13.6525 160.162 4 6 122
1952023S11158 1952 9 SP MM NOT_NAMED 1952-01-24 09:00:00 TS -13.7757 160.442 main 368 360 P________PP___ SH111952 -13.7650 160.450 -1 -13.7650 160.450 TC -13.7972 160.426 4 6 120
1952023S11158 1952 9 SP MM NOT_NAMED 1952-01-24 12:00:00 TS -13.9000 160.700 main 367 363 O________OO___ jtwc_sh SH111952 -13.9000 160.700 -1 -13.9000 160.700 TC -13.9000 160.700 4 5 112
1952023S11158 1952 9 SP MM NOT_NAMED 1952-01-24 15:00:00 TS -13.9730 160.948 main 371 364 P________PP___ SH111952 -13.9799 160.943 -1 -13.9799 160.943 TC -13.9592 160.960 4 5 101
1952023S11158 1952 9 SP MM NOT_NAMED 1952-01-24 18:00:00 TS -13.9916 161.209 main 364 359 O________OP___ jtwc_sh SH111952 -14.0000 161.200 -1 -14.0000 161.200 TC -13.9748 161.228 4 5 89
1952023S11158 1952 9 SP MM NOT_NAMED 1952-01-24 21:00:00 TS -13.9660 161.497 main 359 347 P________PP___ SH111952 -13.9725 161.493 -1 -13.9725 161.493 TC -13.9530 161.507 4 6 81
1952023S11158 1952 9 SP MM NOT_NAMED 1952-01-25 00:00:00 TS -13.9000 161.800 main 347 335 O________OO___ jtwc_sh SH111952 -13.9000 161.800 -1 -13.9000 161.800 TC -13.9000 161.800 4 6 76
1952023S11158 1952 9 SP MM NOT_NAMED 1952-01-25 03:00:00 TS -13.8159 162.097 main 335 324 P________PP___ SH111952 -13.8074 162.092 -1 -13.8074 162.092 TC -13.8327 162.107 4 6 72
1952023S11158 1952 9 SP MM NOT_NAMED 1952-01-25 06:00:00 TS -13.7125 162.409 main 324 315 O________OP___ jtwc_sh SH111952 -13.7000 162.400 -1 -13.7000 162.400 TC -13.7374 162.428 4 7 72
1952023S11158 1952 9 SP MM NOT_NAMED 1952-01-25 09:00:00 TS -13.6078 162.753 main 318 311 P________PP___ SH111952 -13.6000 162.750 -1 -13.6000 162.750 TC -13.6233 162.760 4 7 72
1952023S11158 1952 9 SP MM NOT_NAMED 1952-01-25 12:00:00 TS -13.5000 163.100 main 314 310 O________OO___ jtwc_sh SH111952 -13.5000 163.100 -1 -13.5000 163.100 TC -13.5000 163.100 4 6 72
1952023S11158 1952 9 SP MM NOT_NAMED 1952-01-25 15:00:00 TS -13.4039 163.379 main 314 308 P________PP___ SH111952 -13.4074 163.392 -1 -13.4074 163.392 TC -13.3971 163.353 4 6 70
1952023S11158 1952 9 SP MM NOT_NAMED 1952-01-25 18:00:00 TS -13.2951 163.676 main 318 314 O________OP___ jtwc_sh SH111952 -13.3000 163.700 -1 -13.3000 163.700 TC -13.2852 163.627 4 7 68
1952023S11158 1952 9 SP MM NOT_NAMED 1952-01-25 21:00:00 TS -13.1617 164.007 main 323 295 P________PP___ SH111952 -13.1646 164.017 -1 -13.1646 164.017 TC -13.1559 163.987 4 9 70
1952023S11158 1952 9 SP MM NOT_NAMED 1952-01-26 00:00:00 TS -13.0000 164.500 main 295 261 O________OO___ jtwc_sh SH111952 -13.0000 164.500 -1 -13.0000 164.500 TC -13.0000 164.500 4 13 73
1952023S11158 1952 9 SP MM NOT_NAMED 1952-01-26 03:00:00 TS -12.7982 165.261 main 254 240 P________PP___ SH111952 -12.8151 165.268 -1 -12.8151 165.268 TC -12.7643 165.248 4 17 75
1952023S11158 1952 9 SP MM NOT_NAMED 1952-01-26 06:00:00 TS -12.5688 166.182 main 239 239 O________OP___ jtwc_sh SH111952 -12.6000 166.200 -1 -12.6000 166.200 TC -12.5065 166.145 4 19 75
1952023S11158 1952 9 SP MM NOT_NAMED 1952-01-26 09:00:00 TS -12.3084 167.140 main 274 274 P________PP___ SH111952 -12.3275 167.150 -1 -12.3275 167.150 TC -12.2703 167.120 4 19 76
1952023S11158 1952 9 SP MM NOT_NAMED 1952-01-26 12:00:00 TS -12.1000 168.100 main 333 333 O________OO___ jtwc_sh SH111952 -12.1000 168.100 -1 -12.1000 168.100 TC -12.1000 168.100 4 18 80
1952023S11158 1952 9 SP MM NOT_NAMED 1952-01-26 15:00:00 TS -12.0055 168.947 main 388 388 P________PP___ SH111952 -11.9970 168.957 -1 -11.9970 168.957 TC -12.0224 168.925 4 17 87
1952023S11158 1952 9 SP MM NOT_NAMED 1952-01-26 18:00:00 TS -12.0064 169.784 main 445 445 O________OP___ jtwc_sh SH111952 -12.0000 169.800 -1 -12.0000 169.800 TC -12.0191 169.753 4 17 93
1952023S11158 1952 9 SP MM NOT_NAMED 1952-01-26 21:00:00 TS -12.0783 170.636 main 498 498 P________PP___ SH111952 -12.0767 170.640 -1 -12.0767 170.640 TC -12.0813 170.629 4 18 96
1952023S11158 1952 9 SP MM NOT_NAMED 1952-01-27 00:00:00 TS -12.2000 171.600 main 578 578 O________OO___ jtwc_sh SH111952 -12.2000 171.600 -1 -12.2000 171.600 TC -12.2000 171.600 4 21 95
1952023S11158 1952 9 SP MM NOT_NAMED 1952-01-27 03:00:00 TS -12.2625 172.811 main 686 682 P________PP___ SH111952 -12.2702 172.806 -1 -12.2702 172.806 TC -12.2472 172.823 4 25 94
1952023S11158 1952 9 SP MM NOT_NAMED 1952-01-27 06:00:00 TS -12.3857 174.109 main 675 573 O________OP___ jtwc_sh SH111952 -12.4000 174.100 -1 -12.4000 174.100 TC -12.3571 174.127 4 25 98
1952023S11158 1952 9 SP MM NOT_NAMED 1952-01-27 09:00:00 TS -12.6028 175.386 main 567 471 P________PP___ SH111952 -12.6102 175.383 -1 -12.6102 175.383 TC -12.5880 175.393 4 24 105
1952023S11158 1952 9 SP MM NOT_NAMED 1952-01-27 12:00:00 TS -13.0000 176.500 main 466 370 O________OO___ jtwc_sh SH111952 -13.0000 176.500 -1 -13.0000 176.500 TC -13.0000 176.500 4 21 118
1952023S11158 1952 9 SP MM NOT_NAMED 1952-01-27 15:00:00 TS -13.6001 177.305 main 370 262 P________PP___ SH111952 -13.5942 177.298 -1 -13.5942 177.298 TC -13.6117 177.318 4 20 135
1952023S11158 1952 9 SP MM NOT_NAMED 1952-01-27 18:00:00 TS -14.4040 177.923 main 262 144 O________OP___ jtwc_sh SH111952 -14.4000 177.900 -1 -14.4000 177.900 TC -14.4119 177.969 4 21 147
1952023S11158 1952 9 SP MM NOT_NAMED 1952-01-27 21:00:00 TS -15.3403 178.490 main 144 22 P________PP___ SH111952 -15.3323 178.481 -1 -15.3323 178.481 TC -15.3563 178.510 4 23 153
1952023S11158 1952 9 SP MM NOT_NAMED 1952-01-28 00:00:00 TS -16.4000 179.000 main 11 0 O________OO___ jtwc_sh SH111952 -16.4000 179.000 -1 -16.4000 179.000 TC -16.4000 179.000 4 24 156
1952023S11158 1952 9 SP MM NOT_NAMED 1952-01-28 03:00:00 TS -17.5140 179.516 main 78 78 P________PP___ SH111952 -17.5274 179.508 -1 -17.5274 179.508 TC -17.4872 179.533 4 25 157
1952023S11158 1952 9 SP MM NOT_NAMED 1952-01-28 06:00:00 TS -18.6847 180.011 main 152 152 O________OP___ jtwc_sh SH111952 -18.7000 180.000 -1 -18.7000 180.000 TC -18.6540 -179.968 4 25 158
1952023S11158 1952 9 SP MM NOT_NAMED 1952-01-28 09:00:00 TS -19.8578 180.505 main 276 276 P________PP___ SH111952 -19.8648 -179.499 -1 -19.8648 -179.499 TC -19.8438 -179.485 4 25 158
1952023S11158 1952 9 SP MM NOT_NAMED 1952-01-28 12:00:00 TS -21.0000 181.000 main 404 404 O________OO___ jtwc_sh SH111952 -21.0000 -179.000 -1 -21.0000 181.000 TC -21.0000 -179.000 4 24 157
1952023S11158 1952 9 SP MM NOT_NAMED 1952-01-28 15:00:00 TS -22.0796 181.496 main 534 534 P________PP___ SH111952 -22.0797 -178.507 -1 -22.0797 -178.507 TC -22.0794 -178.498 4 23 156
1952023S11158 1952 9 SP MM NOT_NAMED 1952-01-28 18:00:00 TS -23.0971 182.007 main 656 656 O________OP___ jtwc_sh SH111952 -23.1000 -178.000 -1 -23.1000 182.000 TC -23.0912 -177.979 4 22 154
1952023S11158 1952 9 SP MM NOT_NAMED 1952-01-28 21:00:00 TS -24.0628 182.544 main 777 777 P________PP___ SH111952 -24.0655 -177.462 -1 -24.0655 -177.462 TC -24.0575 -177.445 4 22 152
1952023S11158 1952 9 SP MM NOT_NAMED 1952-01-29 00:00:00 TS -25.0000 183.100 main 895 O________OO___ jtwc_sh SH111952 -25.0000 -176.900 -1 -25.0000 183.100 TC -25.0000 -176.900 4 21 152

デジタル台風データ・検索

IBTrACS Databaseについて

本データベースは、米国NOAAが公開する1842年以降の世界の熱帯低気圧のベストトラックデータアーカイブInternational Best Track Archive for Climate Stewardship (IBTrACS)を、ウェブで閲覧しやすい形式に変換したものです。

最終更新日:2021-12-06